sensor_id;sensor_type;location;lat;lon;timestamp;P1;durP1;ratioP1;P2;durP2;ratioP2
52508;SDS011;38420;53.150;6.370;2023-06-19T00:00:07;9.32;;;8.15;;
52508;SDS011;38420;53.150;6.370;2023-06-19T00:02:41;10.82;;;8.65;;
52508;SDS011;38420;53.150;6.370;2023-06-19T00:05:07;10.80;;;8.75;;
52508;SDS011;38420;53.150;6.370;2023-06-19T00:07:34;10.38;;;9.35;;
52508;SDS011;38420;53.150;6.370;2023-06-19T00:10:00;10.90;;;8.48;;
52508;SDS011;38420;53.150;6.370;2023-06-19T00:12:26;10.05;;;8.52;;
52508;SDS011;38420;53.150;6.370;2023-06-19T00:14:51;13.10;;;7.63;;
52508;SDS011;38420;53.150;6.370;2023-06-19T00:17:17;9.57;;;7.85;;
52508;SDS011;38420;53.150;6.370;2023-06-19T00:19:43;10.30;;;7.60;;
52508;SDS011;38420;53.150;6.370;2023-06-19T00:22:09;9.50;;;8.45;;
52508;SDS011;38420;53.150;6.370;2023-06-19T00:24:35;12.73;;;8.57;;
52508;SDS011;38420;53.150;6.370;2023-06-19T00:27:00;10.85;;;8.30;;
52508;SDS011;38420;53.150;6.370;2023-06-19T00:29:27;9.23;;;8.20;;
52508;SDS011;38420;53.150;6.370;2023-06-19T00:31:53;13.95;;;8.23;;
52508;SDS011;38420;53.150;6.370;2023-06-19T00:34:19;10.75;;;7.93;;
52508;SDS011;38420;53.150;6.370;2023-06-19T00:36:45;9.93;;;7.70;;
52508;SDS011;38420;53.150;6.370;2023-06-19T00:39:11;8.40;;;7.43;;
52508;SDS011;38420;53.150;6.370;2023-06-19T00:41:37;9.98;;;8.43;;
52508;SDS011;38420;53.150;6.370;2023-06-19T00:44:04;13.18;;;8.68;;
52508;SDS011;38420;53.150;6.370;2023-06-19T00:46:30;9.50;;;8.00;;
52508;SDS011;38420;53.150;6.370;2023-06-19T00:48:56;9.88;;;7.93;;
52508;SDS011;38420;53.150;6.370;2023-06-19T00:51:22;9.07;;;7.72;;
52508;SDS011;38420;53.150;6.370;2023-06-19T00:53:48;9.20;;;8.15;;
52508;SDS011;38420;53.150;6.370;2023-06-19T00:56:14;10.35;;;8.25;;
52508;SDS011;38420;53.150;6.370;2023-06-19T00:58:43;11.40;;;7.80;;
52508;SDS011;38420;53.150;6.370;2023-06-19T01:01:09;10.55;;;8.25;;
52508;SDS011;38420;53.150;6.370;2023-06-19T01:03:35;9.73;;;7.40;;
52508;SDS011;38420;53.150;6.370;2023-06-19T01:06:01;11.50;;;7.88;;
52508;SDS011;38420;53.150;6.370;2023-06-19T01:11:23;9.15;;;7.82;;
52508;SDS011;38420;53.150;6.370;2023-06-19T01:13:57;10.37;;;8.23;;
52508;SDS011;38420;53.150;6.370;2023-06-19T01:16:27;11.00;;;7.75;;
52508;SDS011;38420;53.150;6.370;2023-06-19T01:18:53;9.43;;;8.40;;
52508;SDS011;38420;53.150;6.370;2023-06-19T01:21:19;11.00;;;8.55;;
52508;SDS011;38420;53.150;6.370;2023-06-19T01:23:45;10.55;;;8.32;;
52508;SDS011;38420;53.150;6.370;2023-06-19T01:26:12;12.07;;;8.07;;
52508;SDS011;38420;53.150;6.370;2023-06-19T01:28:41;9.65;;;7.72;;
52508;SDS011;38420;53.150;6.370;2023-06-19T01:31:09;12.25;;;8.25;;
52508;SDS011;38420;53.150;6.370;2023-06-19T01:33:38;11.10;;;7.97;;
52508;SDS011;38420;53.150;6.370;2023-06-19T01:36:06;11.02;;;8.32;;
52508;SDS011;38420;53.150;6.370;2023-06-19T01:38:33;11.30;;;7.82;;
52508;SDS011;38420;53.150;6.370;2023-06-19T01:41:00;9.77;;;7.35;;
52508;SDS011;38420;53.150;6.370;2023-06-19T01:43:27;8.82;;;7.63;;
52508;SDS011;38420;53.150;6.370;2023-06-19T01:45:55;10.15;;;8.48;;
52508;SDS011;38420;53.150;6.370;2023-06-19T01:48:21;11.20;;;7.95;;
52508;SDS011;38420;53.150;6.370;2023-06-19T01:50:47;9.90;;;7.80;;
52508;SDS011;38420;53.150;6.370;2023-06-19T01:53:14;12.38;;;8.25;;
52508;SDS011;38420;53.150;6.370;2023-06-19T01:55:40;8.90;;;7.88;;
52508;SDS011;38420;53.150;6.370;2023-06-19T01:58:06;13.48;;;8.02;;
52508;SDS011;38420;53.150;6.370;2023-06-19T02:00:32;8.52;;;7.63;;
52508;SDS011;38420;53.150;6.370;2023-06-19T02:03:00;11.55;;;7.97;;
52508;SDS011;38420;53.150;6.370;2023-06-19T02:05:26;11.40;;;8.32;;
52508;SDS011;38420;53.150;6.370;2023-06-19T02:07:52;12.30;;;8.27;;
52508;SDS011;38420;53.150;6.370;2023-06-19T02:10:17;12.50;;;8.05;;
52508;SDS011;38420;53.150;6.370;2023-06-19T02:12:43;9.77;;;7.93;;
52508;SDS011;38420;53.150;6.370;2023-06-19T02:15:09;9.13;;;7.40;;
52508;SDS011;38420;53.150;6.370;2023-06-19T02:17:35;9.50;;;7.97;;
52508;SDS011;38420;53.150;6.370;2023-06-19T02:20:00;11.05;;;7.72;;
52508;SDS011;38420;53.150;6.370;2023-06-19T02:22:26;10.57;;;8.23;;
52508;SDS011;38420;53.150;6.370;2023-06-19T02:24:51;15.25;;;8.85;;
52508;SDS011;38420;53.150;6.370;2023-06-19T02:27:17;11.80;;;7.60;;
52508;SDS011;38420;53.150;6.370;2023-06-19T02:29:43;10.07;;;7.78;;
52508;SDS011;38420;53.150;6.370;2023-06-19T02:32:08;12.25;;;8.27;;
52508;SDS011;38420;53.150;6.370;2023-06-19T02:34:34;8.20;;;7.40;;
52508;SDS011;38420;53.150;6.370;2023-06-19T02:36:59;11.10;;;8.30;;
52508;SDS011;38420;53.150;6.370;2023-06-19T02:39:25;11.48;;;7.82;;
52508;SDS011;38420;53.150;6.370;2023-06-19T02:41:51;11.48;;;8.32;;
52508;SDS011;38420;53.150;6.370;2023-06-19T02:44:17;11.48;;;7.88;;
52508;SDS011;38420;53.150;6.370;2023-06-19T02:46:42;11.02;;;7.50;;
52508;SDS011;38420;53.150;6.370;2023-06-19T02:49:08;10.52;;;7.60;;
52508;SDS011;38420;53.150;6.370;2023-06-19T02:51:33;12.15;;;8.70;;
52508;SDS011;38420;53.150;6.370;2023-06-19T02:53:59;10.60;;;8.38;;
52508;SDS011;38420;53.150;6.370;2023-06-19T02:56:26;10.18;;;7.60;;
52508;SDS011;38420;53.150;6.370;2023-06-19T02:58:52;10.32;;;7.25;;
52508;SDS011;38420;53.150;6.370;2023-06-19T03:01:18;9.13;;;7.82;;
52508;SDS011;38420;53.150;6.370;2023-06-19T03:03:43;10.65;;;7.82;;
52508;SDS011;38420;53.150;6.370;2023-06-19T03:06:11;10.18;;;8.32;;
52508;SDS011;38420;53.150;6.370;2023-06-19T03:08:38;10.15;;;8.13;;
52508;SDS011;38420;53.150;6.370;2023-06-19T03:11:04;10.75;;;8.38;;
52508;SDS011;38420;53.150;6.370;2023-06-19T03:16:18;10.07;;;7.88;;
52508;SDS011;38420;53.150;6.370;2023-06-19T03:18:45;10.77;;;9.40;;
52508;SDS011;38420;53.150;6.370;2023-06-19T03:21:11;11.77;;;7.90;;
52508;SDS011;38420;53.150;6.370;2023-06-19T03:23:37;10.32;;;8.75;;
52508;SDS011;38420;53.150;6.370;2023-06-19T03:26:03;12.45;;;8.20;;
52508;SDS011;38420;53.150;6.370;2023-06-19T03:28:29;12.15;;;8.73;;
52508;SDS011;38420;53.150;6.370;2023-06-19T03:30:54;11.38;;;8.75;;
52508;SDS011;38420;53.150;6.370;2023-06-19T03:33:20;10.98;;;8.63;;
52508;SDS011;38420;53.150;6.370;2023-06-19T03:35:46;10.52;;;8.18;;
52508;SDS011;38420;53.150;6.370;2023-06-19T03:38:11;12.23;;;8.35;;
52508;SDS011;38420;53.150;6.370;2023-06-19T03:40:37;10.23;;;8.45;;
52508;SDS011;38420;53.150;6.370;2023-06-19T03:43:02;12.43;;;8.18;;
52508;SDS011;38420;53.150;6.370;2023-06-19T03:45:28;10.18;;;8.40;;
52508;SDS011;38420;53.150;6.370;2023-06-19T03:47:53;11.25;;;8.45;;
52508;SDS011;38420;53.150;6.370;2023-06-19T03:50:19;10.70;;;8.00;;
52508;SDS011;38420;53.150;6.370;2023-06-19T03:52:45;11.30;;;8.50;;
52508;SDS011;38420;53.150;6.370;2023-06-19T03:55:10;9.85;;;8.55;;
52508;SDS011;38420;53.150;6.370;2023-06-19T03:57:36;10.15;;;8.13;;
52508;SDS011;38420;53.150;6.370;2023-06-19T04:00:02;11.45;;;8.20;;
52508;SDS011;38420;53.150;6.370;2023-06-19T04:02:32;13.40;;;9.45;;
52508;SDS011;38420;53.150;6.370;2023-06-19T04:04:58;9.57;;;7.40;;
52508;SDS011;38420;53.150;6.370;2023-06-19T04:07:24;12.43;;;7.82;;
52508;SDS011;38420;53.150;6.370;2023-06-19T04:09:49;12.80;;;8.45;;
52508;SDS011;38420;53.150;6.370;2023-06-19T04:12:15;10.20;;;8.65;;
52508;SDS011;38420;53.150;6.370;2023-06-19T04:14:40;10.68;;;8.48;;
52508;SDS011;38420;53.150;6.370;2023-06-19T04:17:06;10.43;;;7.90;;
52508;SDS011;38420;53.150;6.370;2023-06-19T04:19:31;9.30;;;7.47;;
52508;SDS011;38420;53.150;6.370;2023-06-19T04:21:57;9.30;;;7.20;;
52508;SDS011;38420;53.150;6.370;2023-06-19T04:24:23;10.57;;;7.70;;
52508;SDS011;38420;53.150;6.370;2023-06-19T04:26:48;12.30;;;8.05;;
52508;SDS011;38420;53.150;6.370;2023-06-19T04:29:14;9.85;;;6.97;;
52508;SDS011;38420;53.150;6.370;2023-06-19T04:31:43;9.85;;;7.47;;
52508;SDS011;38420;53.150;6.370;2023-06-19T04:34:12;8.13;;;6.47;;
52508;SDS011;38420;53.150;6.370;2023-06-19T04:36:39;8.15;;;6.30;;
52508;SDS011;38420;53.150;6.370;2023-06-19T04:39:06;9.45;;;5.93;;
52508;SDS011;38420;53.150;6.370;2023-06-19T04:41:31;7.93;;;5.03;;
52508;SDS011;38420;53.150;6.370;2023-06-19T04:43:57;10.48;;;5.13;;
52508;SDS011;38420;53.150;6.370;2023-06-19T04:46:23;7.72;;;4.95;;
52508;SDS011;38420;53.150;6.370;2023-06-19T04:48:48;6.22;;;4.90;;
52508;SDS011;38420;53.150;6.370;2023-06-19T04:51:16;7.18;;;5.50;;
52508;SDS011;38420;53.150;6.370;2023-06-19T04:53:46;8.83;;;5.37;;
52508;SDS011;38420;53.150;6.370;2023-06-19T04:56:12;8.27;;;5.72;;
52508;SDS011;38420;53.150;6.370;2023-06-19T04:58:39;8.50;;;6.18;;
52508;SDS011;38420;53.150;6.370;2023-06-19T05:01:10;7.45;;;6.55;;
52508;SDS011;38420;53.150;6.370;2023-06-19T05:03:40;7.95;;;5.85;;
52508;SDS011;38420;53.150;6.370;2023-06-19T05:06:06;7.50;;;6.35;;
52508;SDS011;38420;53.150;6.370;2023-06-19T05:08:32;9.35;;;6.38;;
52508;SDS011;38420;53.150;6.370;2023-06-19T05:10:58;8.02;;;6.10;;
52508;SDS011;38420;53.150;6.370;2023-06-19T05:13:24;7.35;;;6.22;;
52508;SDS011;38420;53.150;6.370;2023-06-19T05:15:49;9.18;;;6.57;;
52508;SDS011;38420;53.150;6.370;2023-06-19T05:18:15;8.25;;;7.13;;
52508;SDS011;38420;53.150;6.370;2023-06-19T05:20:41;6.95;;;6.15;;
52508;SDS011;38420;53.150;6.370;2023-06-19T05:23:07;7.63;;;6.82;;
52508;SDS011;38420;53.150;6.370;2023-06-19T05:25:33;7.80;;;6.57;;
52508;SDS011;38420;53.150;6.370;2023-06-19T05:27:58;13.15;;;7.80;;
52508;SDS011;38420;53.150;6.370;2023-06-19T05:30:24;8.45;;;6.05;;
52508;SDS011;38420;53.150;6.370;2023-06-19T05:32:50;10.65;;;6.95;;
52508;SDS011;38420;53.150;6.370;2023-06-19T05:35:15;9.30;;;7.82;;
52508;SDS011;38420;53.150;6.370;2023-06-19T05:37:41;8.88;;;6.78;;
52508;SDS011;38420;53.150;6.370;2023-06-19T05:40:08;10.82;;;7.57;;
52508;SDS011;38420;53.150;6.370;2023-06-19T05:42:35;9.00;;;7.00;;
52508;SDS011;38420;53.150;6.370;2023-06-19T05:45:01;9.88;;;7.97;;
52508;SDS011;38420;53.150;6.370;2023-06-19T05:47:28;10.48;;;7.95;;
52508;SDS011;38420;53.150;6.370;2023-06-19T05:49:55;12.07;;;9.68;;
52508;SDS011;38420;53.150;6.370;2023-06-19T05:52:24;12.02;;;8.65;;
52508;SDS011;38420;53.150;6.370;2023-06-19T05:54:50;12.10;;;9.82;;
52508;SDS011;38420;53.150;6.370;2023-06-19T05:57:18;12.80;;;9.75;;
52508;SDS011;38420;53.150;6.370;2023-06-19T05:59:48;11.65;;;9.48;;
52508;SDS011;38420;53.150;6.370;2023-06-19T06:02:15;13.20;;;9.73;;
52508;SDS011;38420;53.150;6.370;2023-06-19T06:04:42;11.93;;;9.45;;
52508;SDS011;38420;53.150;6.370;2023-06-19T06:07:08;13.40;;;10.77;;
52508;SDS011;38420;53.150;6.370;2023-06-19T06:09:34;13.15;;;11.05;;
52508;SDS011;38420;53.150;6.370;2023-06-19T06:11:59;16.40;;;12.40;;
52508;SDS011;38420;53.150;6.370;2023-06-19T06:14:25;22.20;;;15.13;;
52508;SDS011;38420;53.150;6.370;2023-06-19T06:16:51;18.27;;;14.05;;
52508;SDS011;38420;53.150;6.370;2023-06-19T06:19:17;18.42;;;14.25;;
52508;SDS011;38420;53.150;6.370;2023-06-19T06:21:43;21.02;;;14.93;;
52508;SDS011;38420;53.150;6.370;2023-06-19T06:24:09;16.30;;;12.90;;
52508;SDS011;38420;53.150;6.370;2023-06-19T06:26:34;17.77;;;13.65;;
52508;SDS011;38420;53.150;6.370;2023-06-19T06:29:00;17.38;;;12.82;;
52508;SDS011;38420;53.150;6.370;2023-06-19T06:31:26;14.15;;;12.10;;
52508;SDS011;38420;53.150;6.370;2023-06-19T06:33:52;13.80;;;12.25;;
52508;SDS011;38420;53.150;6.370;2023-06-19T06:36:18;14.90;;;11.68;;
52508;SDS011;38420;53.150;6.370;2023-06-19T06:38:43;14.10;;;11.50;;
52508;SDS011;38420;53.150;6.370;2023-06-19T06:41:09;15.43;;;12.45;;
52508;SDS011;38420;53.150;6.370;2023-06-19T06:43:34;16.73;;;13.00;;
52508;SDS011;38420;53.150;6.370;2023-06-19T06:46:00;15.55;;;13.52;;
52508;SDS011;38420;53.150;6.370;2023-06-19T06:48:26;13.35;;;10.95;;
52508;SDS011;38420;53.150;6.370;2023-06-19T06:50:51;13.82;;;10.43;;
52508;SDS011;38420;53.150;6.370;2023-06-19T06:53:24;14.45;;;10.60;;
52508;SDS011;38420;53.150;6.370;2023-06-19T06:55:50;14.95;;;11.73;;
52508;SDS011;38420;53.150;6.370;2023-06-19T06:58:17;14.43;;;10.25;;
52508;SDS011;38420;53.150;6.370;2023-06-19T07:00:43;13.23;;;9.05;;
52508;SDS011;38420;53.150;6.370;2023-06-19T07:03:09;14.50;;;11.00;;
52508;SDS011;38420;53.150;6.370;2023-06-19T07:05:35;12.90;;;10.02;;
52508;SDS011;38420;53.150;6.370;2023-06-19T07:08:00;13.02;;;11.02;;
52508;SDS011;38420;53.150;6.370;2023-06-19T07:10:27;18.60;;;13.48;;
52508;SDS011;38420;53.150;6.370;2023-06-19T07:12:52;18.35;;;13.43;;
52508;SDS011;38420;53.150;6.370;2023-06-19T07:15:18;20.60;;;13.93;;
52508;SDS011;38420;53.150;6.370;2023-06-19T07:17:44;21.17;;;15.98;;
52508;SDS011;38420;53.150;6.370;2023-06-19T07:20:10;30.20;;;17.38;;
52508;SDS011;38420;53.150;6.370;2023-06-19T07:22:36;24.35;;;17.27;;
52508;SDS011;38420;53.150;6.370;2023-06-19T07:25:02;28.20;;;18.95;;
52508;SDS011;38420;53.150;6.370;2023-06-19T07:27:28;27.17;;;18.75;;
52508;SDS011;38420;53.150;6.370;2023-06-19T07:29:54;27.83;;;18.80;;
52508;SDS011;38420;53.150;6.370;2023-06-19T07:32:20;28.67;;;19.17;;
52508;SDS011;38420;53.150;6.370;2023-06-19T07:34:46;28.63;;;17.88;;
52508;SDS011;38420;53.150;6.370;2023-06-19T07:37:11;31.92;;;20.05;;
52508;SDS011;38420;53.150;6.370;2023-06-19T07:39:43;29.10;;;18.63;;
52508;SDS011;38420;53.150;6.370;2023-06-19T07:42:13;30.55;;;19.50;;
52508;SDS011;38420;53.150;6.370;2023-06-19T07:44:39;29.60;;;18.00;;
52508;SDS011;38420;53.150;6.370;2023-06-19T07:47:06;28.40;;;17.90;;
52508;SDS011;38420;53.150;6.370;2023-06-19T07:49:32;26.48;;;18.90;;
52508;SDS011;38420;53.150;6.370;2023-06-19T07:51:58;23.88;;;15.57;;
52508;SDS011;38420;53.150;6.370;2023-06-19T07:54:24;27.70;;;17.85;;
52508;SDS011;38420;53.150;6.370;2023-06-19T07:56:49;27.08;;;19.27;;
52508;SDS011;38420;53.150;6.370;2023-06-19T07:59:15;22.10;;;16.35;;
52508;SDS011;38420;53.150;6.370;2023-06-19T08:01:41;23.02;;;16.40;;
52508;SDS011;38420;53.150;6.370;2023-06-19T08:04:08;22.85;;;16.60;;
52508;SDS011;38420;53.150;6.370;2023-06-19T08:06:33;25.80;;;16.77;;
52508;SDS011;38420;53.150;6.370;2023-06-19T08:08:59;24.55;;;16.88;;
52508;SDS011;38420;53.150;6.370;2023-06-19T08:11:24;19.95;;;14.75;;
52508;SDS011;38420;53.150;6.370;2023-06-19T08:13:50;24.27;;;15.77;;
52508;SDS011;38420;53.150;6.370;2023-06-19T08:16:16;22.63;;;16.10;;
52508;SDS011;38420;53.150;6.370;2023-06-19T08:18:43;24.00;;;16.15;;
52508;SDS011;38420;53.150;6.370;2023-06-19T08:21:09;19.88;;;15.68;;
52508;SDS011;38420;53.150;6.370;2023-06-19T08:23:35;21.23;;;15.70;;
52508;SDS011;38420;53.150;6.370;2023-06-19T08:26:00;20.15;;;16.13;;
52508;SDS011;38420;53.150;6.370;2023-06-19T08:28:27;21.80;;;13.82;;
52508;SDS011;38420;53.150;6.370;2023-06-19T08:30:52;19.98;;;14.50;;
52508;SDS011;38420;53.150;6.370;2023-06-19T08:33:18;20.55;;;14.82;;
52508;SDS011;38420;53.150;6.370;2023-06-19T08:35:43;16.83;;;13.00;;
52508;SDS011;38420;53.150;6.370;2023-06-19T08:38:11;18.50;;;14.88;;
52508;SDS011;38420;53.150;6.370;2023-06-19T08:40:36;19.08;;;12.70;;
52508;SDS011;38420;53.150;6.370;2023-06-19T08:43:02;17.27;;;12.70;;
52508;SDS011;38420;53.150;6.370;2023-06-19T08:45:29;16.10;;;12.15;;
52508;SDS011;38420;53.150;6.370;2023-06-19T08:47:57;18.33;;;12.73;;
52508;SDS011;38420;53.150;6.370;2023-06-19T08:50:24;16.70;;;10.65;;
52508;SDS011;38420;53.150;6.370;2023-06-19T08:52:50;13.25;;;9.05;;
52508;SDS011;38420;53.150;6.370;2023-06-19T08:55:16;13.18;;;9.40;;
52508;SDS011;38420;53.150;6.370;2023-06-19T08:57:41;13.00;;;9.27;;
52508;SDS011;38420;53.150;6.370;2023-06-19T09:00:07;13.18;;;8.52;;
52508;SDS011;38420;53.150;6.370;2023-06-19T09:02:39;13.38;;;8.50;;
52508;SDS011;38420;53.150;6.370;2023-06-19T09:05:12;12.02;;;8.02;;
52508;SDS011;38420;53.150;6.370;2023-06-19T09:07:39;16.17;;;8.27;;
52508;SDS011;38420;53.150;6.370;2023-06-19T09:10:15;12.68;;;7.57;;
52508;SDS011;38420;53.150;6.370;2023-06-19T09:12:43;13.38;;;8.80;;
52508;SDS011;38420;53.150;6.370;2023-06-19T09:15:20;15.60;;;8.73;;
52508;SDS011;38420;53.150;6.370;2023-06-19T09:17:46;10.50;;;8.90;;
52508;SDS011;38420;53.150;6.370;2023-06-19T09:20:11;10.43;;;7.65;;
52508;SDS011;38420;53.150;6.370;2023-06-19T09:22:37;11.02;;;7.43;;
52508;SDS011;38420;53.150;6.370;2023-06-19T09:25:04;11.73;;;7.70;;
52508;SDS011;38420;53.150;6.370;2023-06-19T09:27:33;11.90;;;8.02;;
52508;SDS011;38420;53.150;6.370;2023-06-19T09:29:58;12.20;;;8.63;;
52508;SDS011;38420;53.150;6.370;2023-06-19T09:32:26;14.48;;;10.02;;
52508;SDS011;38420;53.150;6.370;2023-06-19T09:34:54;14.43;;;10.43;;
52508;SDS011;38420;53.150;6.370;2023-06-19T09:37:24;13.93;;;10.97;;
52508;SDS011;38420;53.150;6.370;2023-06-19T09:39:55;13.73;;;10.55;;
52508;SDS011;38420;53.150;6.370;2023-06-19T09:42:32;12.25;;;10.10;;
52508;SDS011;38420;53.150;6.370;2023-06-19T09:45:09;14.35;;;12.10;;
52508;SDS011;38420;53.150;6.370;2023-06-19T09:50:11;16.23;;;12.23;;
52508;SDS011;38420;53.150;6.370;2023-06-19T09:52:39;17.85;;;12.73;;
52508;SDS011;38420;53.150;6.370;2023-06-19T09:55:07;19.77;;;11.98;;
52508;SDS011;38420;53.150;6.370;2023-06-19T09:57:34;15.98;;;11.40;;
52508;SDS011;38420;53.150;6.370;2023-06-19T10:00:01;15.35;;;11.27;;
52508;SDS011;38420;53.150;6.370;2023-06-19T10:02:35;18.75;;;11.25;;
52508;SDS011;38420;53.150;6.370;2023-06-19T10:05:03;14.93;;;11.70;;
52508;SDS011;38420;53.150;6.370;2023-06-19T10:07:32;15.63;;;11.77;;
52508;SDS011;38420;53.150;6.370;2023-06-19T10:10:02;13.77;;;11.07;;
52508;SDS011;38420;53.150;6.370;2023-06-19T10:12:45;15.60;;;12.23;;
52508;SDS011;38420;53.150;6.370;2023-06-19T10:18:00;17.00;;;13.15;;
52508;SDS011;38420;53.150;6.370;2023-06-19T10:20:27;17.65;;;13.50;;
52508;SDS011;38420;53.150;6.370;2023-06-19T10:23:06;22.60;;;15.10;;
52508;SDS011;38420;53.150;6.370;2023-06-19T10:25:43;20.75;;;14.68;;
52508;SDS011;38420;53.150;6.370;2023-06-19T10:28:23;17.70;;;13.63;;
52508;SDS011;38420;53.150;6.370;2023-06-19T10:31:01;20.17;;;14.27;;
52508;SDS011;38420;53.150;6.370;2023-06-19T10:33:29;17.33;;;13.02;;
52508;SDS011;38420;53.150;6.370;2023-06-19T10:36:00;12.80;;;8.63;;
52508;SDS011;38420;53.150;6.370;2023-06-19T10:38:27;18.83;;;14.05;;
52508;SDS011;38420;53.150;6.370;2023-06-19T10:40:53;20.77;;;14.25;;
52508;SDS011;38420;53.150;6.370;2023-06-19T10:43:22;18.48;;;12.57;;
